Flight Track Log - Related Links

Times and Time Zones

All times are in EDT time to prevent confusion due to time zone crossing. See the GJS3710 flight status page for this flight to view local times or setup timezone preferences in your user account.

Time Position Orientation Groundspeed Altitude Reporting Facility
EDT Latitude Longitude Course Direction KTS km/h feet Rate Location/Type
Tue 14h51:19 29.5200 -98.4569 129° Southeast 155 286 1.600  Level Houston Center
Tue 14h52:01 29.4983 -98.4261 129° Southeast 181 335 2.800 1.965 Climbing Houston Center
Tue 14h53:12 29.4650 -98.3583 119° Southeast 227 420 5.300 2.297 Climbing Houston Center
Tue 14h54:09 29.5236 -98.3150 33° Northeast 288 533 7.700 2.661 Climbing Houston Center
Tue 14h55:16 29.6133 -98.3258 354° North 282 523 10.800 2.047 Climbing Houston Center
Tue 14h56:18 29.7011 -98.3369 354° North 325 602 12.100 1.500 Climbing Houston Center
Tue 14h57:20 29.8072 -98.3508 354° North 356 660 13.900 1.645 Climbing Houston Center
Tue 14h58:22 29.9072 -98.3797 346° North 369 684 15.500 1.839 Climbing Houston Center
Tue 14h59:24 30.0092 -98.4358 335° Northwest 397 735 17.700 1.790 Climbing Houston Center
Tue 15h00:26 30.1047 -98.4911 333° Northwest 365 676 19.200 1.548 Climbing Houston Center
Tue 15h01:28 30.2025 -98.5447 335° Northwest 386 715 20.900 1.776 Climbing Houston Center
Tue 15h02:31 30.3044 -98.6028 334° Northwest 390 723 22.900 1.776 Climbing Houston Center
Tue 15h03:33 30.4042 -98.6589 334° Northwest 393 727 24.600 1.597 Climbing Houston Center
Tue 15h04:35 30.5042 -98.7153 334° Northwest 395 732 26.200 1.500 Climbing Houston Center
Tue 15h05:37 30.6044 -98.7728 334° Northwest 397 735 27.700 1.306 Climbing Houston Center
Tue 15h06:39 30.7044 -98.8300 334° Northwest 397 735 28.900 1.113 Climbing Houston Center
Tue 15h07:41 30.8061 -98.8883 334° Northwest 400 740 30.000 823 Climbing Houston Center
Tue 15h08:43 30.9269 -98.9575 334° Northwest 408 756 30.600 624 Climbing Houston Center
Tue 15h09:46 31.0350 -99.0178 334° Northwest 421 779 31.300 768 Climbing Houston Center
Tue 15h10:48 31.1414 -99.0803 333° Northwest 423 784 32.200 919 Climbing Houston Center
Tue 15h11:50 31.2489 -99.1408 334° Northwest 424 785 33.200 968 Climbing Houston Center
Tue 15h12:52 31.3542 -99.2017 334° Northwest 418 774 34.200 918 Climbing Houston Center
Tue 15h13:15 31.3944 -99.2264 332° Northwest 417 772 34.500 571 Climbing Fort Worth Center
Tue 15h14:16 31.5039 -99.2919 333° Northwest 404 748 35.000 250 Climbing Fort Worth Center
Tue 15h15:15 31.6117 -99.3528 334° Northwest 404 748 35.000  Level Fort Worth Center
Tue 15h16:15 31.7214 -99.4161 334° Northwest 420 777 35.000  Level Fort Worth Center
Tue 15h17:16 31.8289 -99.4769 334° Northwest 427 790 35.000  Level Fort Worth Center
Tue 15h18:15 31.9342 -99.5406 333° Northwest 427 790 35.000  Level Fort Worth Center
Tue 15h19:15 32.0439 -99.6069 333° Northwest 427 790 35.000  Level Fort Worth Center
Tue 15h20:15 32.1533 -99.6708 334° Northwest 427 790 35.000  Level Fort Worth Center
Tue 15h21:15 32.2608 -99.7325 334° Northwest 427 790 35.000  Level Fort Worth Center
Tue 15h22:15 32.3703 -99.7969 334° Northwest 427 790 35.000  Level Fort Worth Center
Tue 15h23:15 32.4694 -99.8486 336° Northwest 427 790 35.000  Level Fort Worth Center
Tue 15h24:15 32.5789 -99.9108 334° Northwest 427 790 35.000  Level Fort Worth Center
Tue 15h25:15 32.6967 -99.9708 337° Northwest 435 806 35.000 248 Level Fort Worth Center
Tue 15h26:16 32.8100 -100.0333 335° Northwest 441 816 35.500 500 Climbing Fort Worth Center
Tue 15h27:15 32.9175 -100.0911 336° Northwest 435 806 36.000 252 Climbing Fort Worth Center
Tue 15h28:15 33.0308 -100.1539 335° Northwest 435 806 36.000  Level Fort Worth Center
Tue 15h29:15 33.1506 -100.2197 335° Northwest 441 816 36.000  Level Fort Worth Center
Tue 15h30:15 33.2619 -100.2803 336° Northwest 441 816 36.000  Level Fort Worth Center
Tue 15h31:15 33.3731 -100.3436 335° Northwest 441 816 36.000  Level Fort Worth Center
Tue 15h32:15 33.4844 -100.4047 335° Northwest 441 816 36.000  Level Fort Worth Center
Tue 15h33:15 33.5975 -100.4683 335° Northwest 441 816 36.000  Level Fort Worth Center
Tue 15h34:15 33.7086 -100.5319 335° Northwest 441 816 36.000  Level Fort Worth Center
Tue 15h35:15 33.8219 -100.5936 336° Northwest 441 816 36.000  Level Fort Worth Center
Tue 15h36:15 33.9331 -100.6578 334° Northwest 441 816 36.000  Level Fort Worth Center
Tue 15h37:15 34.0461 -100.7197 336° Northwest 441 816 36.000  Level Fort Worth Center
Tue 15h39:06 34.2456 -100.8311 335° Northwest 448 830 36.000  Level Albuquerque Center
Tue 15h40:07 34.3578 -100.8947 335° Northwest 448 830 36.000  Level Albuquerque Center
Tue 15h41:09 34.4703 -100.9589 335° Northwest 447 827 36.000  Level Albuquerque Center
Tue 15h42:11 34.5828 -101.0231 335° Northwest 447 827 36.000  Level Albuquerque Center
Tue 15h43:12 34.7181 -101.1014 335° Northwest 449 832 36.000  Level Albuquerque Center
Tue 15h44:14 34.8292 -101.1675 334° Northwest 446 826 36.000  Level Albuquerque Center
Tue 15h45:16 34.9422 -101.2317 335° Northwest 449 832 36.000  Level Albuquerque Center
Tue 15h46:18 35.0544 -101.2964 335° Northwest 449 832 36.000  Level Albuquerque Center
Tue 15h47:19 35.1761 -101.3672 335° Northwest 453 838 36.000  Level Albuquerque Center
Tue 15h48:21 35.2917 -101.4342 335° Northwest 455 843 36.000  Level Albuquerque Center
Tue 15h49:23 35.4053 -101.5003 335° Northwest 452 837 36.000  Level Albuquerque Center
Tue 15h50:24 35.5228 -101.5697 334° Northwest 448 830 36.000  Level Albuquerque Center
Tue 15h51:26 35.6325 -101.6358 334° Northwest 444 822 36.000  Level Albuquerque Center
Tue 15h52:28 35.7439 -101.7008 335° Northwest 445 824 36.000  Level Albuquerque Center
Tue 15h53:30 35.8550 -101.7675 334° Northwest 445 824 36.000  Level Albuquerque Center
Tue 15h54:31 35.9886 -101.8475 334° Northwest 445 824 36.000  Level Albuquerque Center
Tue 15h55:33 36.1003 -101.9139 334° Northwest 445 824 36.000  Level Albuquerque Center
Tue 15h56:35 36.2114 -101.9797 334° Northwest 443 821 36.000  Level Albuquerque Center
Tue 15h57:37 36.3231 -102.0458 335° Northwest 445 824 36.000  Level Albuquerque Center
Tue 15h58:38 36.4339 -102.1131 334° Northwest 444 822 36.000  Level Albuquerque Center
Tue 15h59:40 36.5444 -102.1803 334° Northwest 443 821 36.000  Level Albuquerque Center
Tue 16h00:42 36.6544 -102.2464 334° Northwest 440 814 36.000  Level Albuquerque Center
Tue 16h01:44 36.7856 -102.3267 334° Northwest 440 814 36.000  Level Albuquerque Center
Tue 16h02:46 36.8983 -102.3969 334° Northwest 440 814 36.000  Level Albuquerque Center
Tue 16h03:47 37.0042 -102.4611 334° Northwest 441 816 36.000  Level Albuquerque Center
Tue 16h04:49 37.1142 -102.5286 334° Northwest 438 811 36.000  Level Albuquerque Center
Tue 16h05:51 37.2367 -102.6044 334° Northwest 439 813 36.000  Level Albuquerque Center
Tue 16h06:53 37.3408 -102.6686 334° Northwest 438 811 36.000  Level Albuquerque Center
Tue 16h07:58 37.4622 -102.7428 334° Northwest 437 810 36.000  Level Denver Center
Tue 16h09:00 37.5719 -102.7953 339° North 445 824 36.000 -387 Level Denver Center
Tue 16h10:02 37.7061 -102.8386 346° North 448 830 35.200 -823 Descending Denver Center
Tue 16h11:04 37.8219 -102.8750 346° North 449 832 34.300 -1.024 Descending Denver Center
Tue 16h12:05 37.9564 -102.9189 346° North 449 832 33.100 -1.024 Descending Denver Center
Tue 16h13:07 38.0561 -102.9942 329° Northwest 442 819 32.200 -532 Descending Denver Center
Tue 16h14:09 38.1689 -103.0981 324° Northwest 447 827 32.000 -98 Descending Denver Center
Tue 16h15:10 38.2656 -103.1875 324° Northwest 447 827 32.000  Level Denver Center
Tue 16h16:12 38.3800 -103.2931 324° Northwest 454 840 32.000 -49 Level Denver Center
Tue 16h17:13 38.4775 -103.3828 324° Northwest 452 837 31.900 -1.122 Descending Denver Center
Tue 16h18:15 38.5867 -103.4861 324° Northwest 441 816 29.700 -1.935 Descending Denver Center
Tue 16h19:17 38.6775 -103.5706 324° Northwest 426 789 27.900 -1.756 Descending Denver Center
Tue 16h20:18 38.7667 -103.6550 324° Northwest 418 774 26.100 -1.854 Descending Denver Center
Tue 16h21:20 38.8622 -103.7456 324° Northwest 403 747 24.100 -1.790 Descending Denver Center
Tue 16h22:22 38.9511 -103.8283 324° Northwest 393 727 22.400 -1.561 Descending Denver Center
Tue 16h23:23 39.0356 -103.9081 324° Northwest 374 692 20.900 -1.366 Descending Denver Center
Tue 16h24:25 39.1169 -103.9850 324° Northwest 363 673 19.600 -1.220 Descending Denver Center
Tue 16h25:26 39.2003 -104.0650 323° Northwest 325 602 18.400 -1.073 Descending Denver Center
Tue 16h26:28 39.2642 -104.1328 321° Northwest 316 586 17.400 -968 Descending Denver Center
Tue 16h27:30 39.2842 -104.2294 285° West 270 501 16.400 -1.024 Descending Denver Center
Tue 16h28:31 39.3053 -104.3200 287° West 244 452 15.300 -1.024 Descending Denver Center
Tue 16h29:33 39.3442 -104.3981 303° West 266 492 14.300 -976 Descending Denver Center
Tue 16h30:34 39.3925 -104.4681 312° West 264 489 13.300 -1.024 Descending Denver Center
Tue 16h31:36 39.4556 -104.5189 328° Northwest 252 467 12.200 -1.065 Descending Denver Center
Tue 16h32:38 39.5208 -104.5503 340° North 250 463 11.100 -1.220 Descending Denver Center
Tue 16h33:39 39.5908 -104.5842 340° North 251 465 9.700 -1.366 Descending Denver Center
Tue 16h34:41 39.6550 -104.6156 339° North 248 459 8.300 -1.113 Descending Denver Center
Tue 16h35:43 39.7114 -104.6439 339° North 221 409 7.400 -780 Descending Denver Center
Tue 16h36:44 39.7664 -104.6608 347° North 188 348 6.700 -732 Descending Denver Center
Tue 16h37:46 39.8094 -104.6611 360° North 156 290 5.900 -634 Descending Denver Center
Tue 16h38:47 39.8442 -104.6594 North 125 232 5.400 -492 Descending Denver Center
Tue 16h40:00 39.8500 -104.6667 North  Level FlightAware Approximate
Tue 16h47:00 39.8617 -104.6732 North  Level Estimated
Tue 16h48:00 39.8617 -104.6732 North  Level Estimated

Login

Don't have an account? Register now (free) for customized features, flight alerts, and more!